sensor_id;sensor_type;location;lat;lon;timestamp;temperature;humidity
75961;SHT30;64644;48.914;2.254;2023-04-25T00:01:44;12.45;68.63
75961;SHT30;64644;48.914;2.254;2023-04-25T00:04:10;12.45;68.45
75961;SHT30;64644;48.914;2.254;2023-04-25T00:06:37;12.40;68.19
75961;SHT30;64644;48.914;2.254;2023-04-25T00:09:04;12.34;67.29
75961;SHT30;64644;48.914;2.254;2023-04-25T00:11:32;12.29;67.97
75961;SHT30;64644;48.914;2.254;2023-04-25T00:13:58;12.23;67.97
75961;SHT30;64644;48.914;2.254;2023-04-25T00:16:25;12.19;68.02
75961;SHT30;64644;48.914;2.254;2023-04-25T00:18:50;12.10;67.80
75961;SHT30;64644;48.914;2.254;2023-04-25T00:21:19;12.04;68.31
75961;SHT30;64644;48.914;2.254;2023-04-25T00:23:45;12.02;67.92
75961;SHT30;64644;48.914;2.254;2023-04-25T00:26:11;11.96;67.93
75961;SHT30;64644;48.914;2.254;2023-04-25T00:28:37;11.90;68.52
75961;SHT30;64644;48.914;2.254;2023-04-25T00:31:02;11.90;68.62
75961;SHT30;64644;48.914;2.254;2023-04-25T00:33:28;11.90;68.70
75961;SHT30;64644;48.914;2.254;2023-04-25T00:35:53;11.90;68.37
75961;SHT30;64644;48.914;2.254;2023-04-25T00:38:19;11.89;68.41
75961;SHT30;64644;48.914;2.254;2023-04-25T00:40:44;11.92;68.95
75961;SHT30;64644;48.914;2.254;2023-04-25T00:43:09;11.93;68.78
75961;SHT30;64644;48.914;2.254;2023-04-25T00:45:38;11.93;68.10
75961;SHT30;64644;48.914;2.254;2023-04-25T00:48:04;11.92;68.21
75961;SHT30;64644;48.914;2.254;2023-04-25T00:50:30;11.87;68.14
75961;SHT30;64644;48.914;2.254;2023-04-25T00:52:55;11.90;68.40
75961;SHT30;64644;48.914;2.254;2023-04-25T00:55:21;11.87;68.29
75961;SHT30;64644;48.914;2.254;2023-04-25T00:57:46;11.87;68.28
75961;SHT30;64644;48.914;2.254;2023-04-25T01:00:12;11.87;68.52
75961;SHT30;64644;48.914;2.254;2023-04-25T01:02:40;11.89;68.46
75961;SHT30;64644;48.914;2.254;2023-04-25T01:05:05;11.90;68.28
75961;SHT30;64644;48.914;2.254;2023-04-25T01:07:31;11.89;68.11
75961;SHT30;64644;48.914;2.254;2023-04-25T01:09:56;11.86;68.25
75961;SHT30;64644;48.914;2.254;2023-04-25T01:12:22;11.83;68.24
75961;SHT30;64644;48.914;2.254;2023-04-25T01:14:48;11.83;68.08
75961;SHT30;64644;48.914;2.254;2023-04-25T01:17:13;11.82;68.25
75961;SHT30;64644;48.914;2.254;2023-04-25T01:19:40;11.78;68.17
75961;SHT30;64644;48.914;2.254;2023-04-25T01:22:05;11.76;67.86
75961;SHT30;64644;48.914;2.254;2023-04-25T01:24:34;11.71;68.04
75961;SHT30;64644;48.914;2.254;2023-04-25T01:27:00;11.71;68.33
75961;SHT30;64644;48.914;2.254;2023-04-25T01:29:34;11.68;68.15
75961;SHT30;64644;48.914;2.254;2023-04-25T01:32:01;11.69;68.18
75961;SHT30;64644;48.914;2.254;2023-04-25T01:34:26;11.71;68.20
75961;SHT30;64644;48.914;2.254;2023-04-25T01:36:52;11.68;68.42
75961;SHT30;64644;48.914;2.254;2023-04-25T01:39:19;11.72;68.32
75961;SHT30;64644;48.914;2.254;2023-04-25T01:41:47;11.72;68.26
75961;SHT30;64644;48.914;2.254;2023-04-25T01:44:13;11.69;68.55
75961;SHT30;64644;48.914;2.254;2023-04-25T01:46:39;11.72;68.75
75961;SHT30;64644;48.914;2.254;2023-04-25T01:49:05;11.72;68.56
75961;SHT30;64644;48.914;2.254;2023-04-25T01:51:30;11.72;68.88
75961;SHT30;64644;48.914;2.254;2023-04-25T01:53:57;11.79;68.29
75961;SHT30;64644;48.914;2.254;2023-04-25T01:56:22;11.74;68.34
75961;SHT30;64644;48.914;2.254;2023-04-25T01:58:48;11.75;68.53
75961;SHT30;64644;48.914;2.254;2023-04-25T02:01:13;11.78;68.66
75961;SHT30;64644;48.914;2.254;2023-04-25T02:03:39;11.76;68.48
75961;SHT30;64644;48.914;2.254;2023-04-25T02:06:04;11.76;68.40
75961;SHT30;64644;48.914;2.254;2023-04-25T02:08:30;11.78;68.40
75961;SHT30;64644;48.914;2.254;2023-04-25T02:10:56;11.78;68.50
75961;SHT30;64644;48.914;2.254;2023-04-25T02:13:22;11.79;68.19
75961;SHT30;64644;48.914;2.254;2023-04-25T02:15:47;11.78;68.71
75961;SHT30;64644;48.914;2.254;2023-04-25T02:18:12;11.82;68.54
75961;SHT30;64644;48.914;2.254;2023-04-25T02:20:38;11.81;68.44
75961;SHT30;64644;48.914;2.254;2023-04-25T02:23:03;11.79;68.19
75961;SHT30;64644;48.914;2.254;2023-04-25T02:25:29;11.76;67.84
75961;SHT30;64644;48.914;2.254;2023-04-25T02:27:54;11.72;68.01
75961;SHT30;64644;48.914;2.254;2023-04-25T02:30:20;11.68;68.49
75961;SHT30;64644;48.914;2.254;2023-04-25T02:32:45;11.69;68.46
75961;SHT30;64644;48.914;2.254;2023-04-25T02:35:11;11.69;68.33
75961;SHT30;64644;48.914;2.254;2023-04-25T02:37:38;11.67;68.14
75961;SHT30;64644;48.914;2.254;2023-04-25T02:40:04;11.67;68.45
75961;SHT30;64644;48.914;2.254;2023-04-25T02:42:30;11.68;68.48
75961;SHT30;64644;48.914;2.254;2023-04-25T02:44:55;11.68;68.44
75961;SHT30;64644;48.914;2.254;2023-04-25T02:47:20;11.68;68.37
75961;SHT30;64644;48.914;2.254;2023-04-25T02:49:46;11.68;68.36
75961;SHT30;64644;48.914;2.254;2023-04-25T02:52:11;11.67;67.93
75961;SHT30;64644;48.914;2.254;2023-04-25T02:54:38;11.61;67.91
75961;SHT30;64644;48.914;2.254;2023-04-25T02:57:03;11.55;68.27
75961;SHT30;64644;48.914;2.254;2023-04-25T02:59:28;11.55;68.38
75961;SHT30;64644;48.914;2.254;2023-04-25T03:01:54;11.52;68.39
75961;SHT30;64644;48.914;2.254;2023-04-25T03:04:19;11.52;68.23
75961;SHT30;64644;48.914;2.254;2023-04-25T03:06:46;11.50;68.60
75961;SHT30;64644;48.914;2.254;2023-04-25T03:09:11;11.50;68.69
75961;SHT30;64644;48.914;2.254;2023-04-25T03:11:38;11.51;68.66
75961;SHT30;64644;48.914;2.254;2023-04-25T03:14:03;11.52;68.70
75961;SHT30;64644;48.914;2.254;2023-04-25T03:16:28;11.52;68.67
75961;SHT30;64644;48.914;2.254;2023-04-25T03:18:54;11.54;68.74
75961;SHT30;64644;48.914;2.254;2023-04-25T03:21:20;11.57;68.54
75961;SHT30;64644;48.914;2.254;2023-04-25T03:23:45;11.55;68.79
75961;SHT30;64644;48.914;2.254;2023-04-25T03:26:10;11.55;68.77
75961;SHT30;64644;48.914;2.254;2023-04-25T03:28:36;11.55;68.36
75961;SHT30;64644;48.914;2.254;2023-04-25T03:31:01;11.54;67.96
75961;SHT30;64644;48.914;2.254;2023-04-25T03:33:26;11.44;68.53
75961;SHT30;64644;48.914;2.254;2023-04-25T03:35:52;11.41;68.99
75961;SHT30;64644;48.914;2.254;2023-04-25T03:38:18;11.41;69.06
75961;SHT30;64644;48.914;2.254;2023-04-25T03:40:43;11.41;68.80
75961;SHT30;64644;48.914;2.254;2023-04-25T03:43:08;11.38;68.39
75961;SHT30;64644;48.914;2.254;2023-04-25T03:45:34;11.37;69.08
75961;SHT30;64644;48.914;2.254;2023-04-25T03:47:59;11.38;69.03
75961;SHT30;64644;48.914;2.254;2023-04-25T03:50:25;11.41;68.74
75961;SHT30;64644;48.914;2.254;2023-04-25T03:52:50;11.40;68.91
75961;SHT30;64644;48.914;2.254;2023-04-25T03:55:15;11.38;68.78
75961;SHT30;64644;48.914;2.254;2023-04-25T03:57:41;11.40;68.84
75961;SHT30;64644;48.914;2.254;2023-04-25T04:00:07;11.35;68.56
75961;SHT30;64644;48.914;2.254;2023-04-25T04:02:32;11.34;68.91
75961;SHT30;64644;48.914;2.254;2023-04-25T04:05:00;11.33;69.22
75961;SHT30;64644;48.914;2.254;2023-04-25T04:07:25;11.34;69.04
75961;SHT30;64644;48.914;2.254;2023-04-25T04:09:50;11.34;69.07
75961;SHT30;64644;48.914;2.254;2023-04-25T04:12:16;11.38;69.42
75961;SHT30;64644;48.914;2.254;2023-04-25T04:14:41;11.37;69.21
75961;SHT30;64644;48.914;2.254;2023-04-25T04:17:06;11.40;69.18
75961;SHT30;64644;48.914;2.254;2023-04-25T04:19:32;11.40;69.00
75961;SHT30;64644;48.914;2.254;2023-04-25T04:21:57;11.40;69.27
75961;SHT30;64644;48.914;2.254;2023-04-25T04:24:23;11.37;69.09
75961;SHT30;64644;48.914;2.254;2023-04-25T04:26:49;11.38;69.07
75961;SHT30;64644;48.914;2.254;2023-04-25T04:29:15;11.37;69.07
75961;SHT30;64644;48.914;2.254;2023-04-25T04:31:47;11.35;68.99
75961;SHT30;64644;48.914;2.254;2023-04-25T04:34:13;11.38;69.21
75961;SHT30;64644;48.914;2.254;2023-04-25T04:36:38;11.37;69.12
75961;SHT30;64644;48.914;2.254;2023-04-25T04:39:05;11.34;69.15
75961;SHT30;64644;48.914;2.254;2023-04-25T04:41:31;11.34;69.20
75961;SHT30;64644;48.914;2.254;2023-04-25T04:43:57;11.31;69.20
75961;SHT30;64644;48.914;2.254;2023-04-25T04:46:22;11.28;69.30
75961;SHT30;64644;48.914;2.254;2023-04-25T04:48:49;11.30;69.50
75961;SHT30;64644;48.914;2.254;2023-04-25T04:51:15;11.30;69.48
75961;SHT30;64644;48.914;2.254;2023-04-25T04:53:40;11.31;69.34
75961;SHT30;64644;48.914;2.254;2023-04-25T04:56:06;11.30;69.54
75961;SHT30;64644;48.914;2.254;2023-04-25T04:58:31;11.30;69.50
75961;SHT30;64644;48.914;2.254;2023-04-25T05:00:56;11.31;69.38
75961;SHT30;64644;48.914;2.254;2023-04-25T05:03:22;11.33;69.58
75961;SHT30;64644;48.914;2.254;2023-04-25T05:05:47;11.34;69.46
75961;SHT30;64644;48.914;2.254;2023-04-25T05:08:12;11.31;69.48
75961;SHT30;64644;48.914;2.254;2023-04-25T05:10:38;11.31;69.78
75961;SHT30;64644;48.914;2.254;2023-04-25T05:13:03;11.31;69.71
75961;SHT30;64644;48.914;2.254;2023-04-25T05:15:28;11.34;69.75
75961;SHT30;64644;48.914;2.254;2023-04-25T05:17:54;11.38;69.84
75961;SHT30;64644;48.914;2.254;2023-04-25T05:20:20;11.40;69.41
75961;SHT30;64644;48.914;2.254;2023-04-25T05:22:45;11.37;69.75
75961;SHT30;64644;48.914;2.254;2023-04-25T05:25:10;11.38;69.54
75961;SHT30;64644;48.914;2.254;2023-04-25T05:27:36;11.38;69.85
75961;SHT30;64644;48.914;2.254;2023-04-25T05:30:01;11.41;69.92
75961;SHT30;64644;48.914;2.254;2023-04-25T05:32:27;11.45;69.93
75961;SHT30;64644;48.914;2.254;2023-04-25T05:34:52;11.45;69.77
75961;SHT30;64644;48.914;2.254;2023-04-25T05:37:18;11.48;69.89
75961;SHT30;64644;48.914;2.254;2023-04-25T05:39:43;11.50;69.50
75961;SHT30;64644;48.914;2.254;2023-04-25T05:42:09;11.45;69.67
75961;SHT30;64644;48.914;2.254;2023-04-25T05:44:34;11.50;70.00
75961;SHT30;64644;48.914;2.254;2023-04-25T05:46:59;11.52;70.20
75961;SHT30;64644;48.914;2.254;2023-04-25T05:49:25;11.51;69.78
75961;SHT30;64644;48.914;2.254;2023-04-25T05:51:50;11.50;69.64
75961;SHT30;64644;48.914;2.254;2023-04-25T05:54:15;11.50;69.98
75961;SHT30;64644;48.914;2.254;2023-04-25T05:56:41;11.51;70.07
75961;SHT30;64644;48.914;2.254;2023-04-25T05:59:06;11.55;70.18
75961;SHT30;64644;48.914;2.254;2023-04-25T06:01:31;11.55;69.79
75961;SHT30;64644;48.914;2.254;2023-04-25T06:03:57;11.58;69.79
75961;SHT30;64644;48.914;2.254;2023-04-25T06:06:22;11.54;70.00
75961;SHT30;64644;48.914;2.254;2023-04-25T06:08:48;11.59;70.23
75961;SHT30;64644;48.914;2.254;2023-04-25T06:11:13;11.64;70.40
75961;SHT30;64644;48.914;2.254;2023-04-25T06:13:38;11.69;69.98
75961;SHT30;64644;48.914;2.254;2023-04-25T06:16:04;11.72;69.69
75961;SHT30;64644;48.914;2.254;2023-04-25T06:18:29;11.74;69.96
75961;SHT30;64644;48.914;2.254;2023-04-25T06:20:55;11.78;69.74
75961;SHT30;64644;48.914;2.254;2023-04-25T06:23:20;11.82;69.88
75961;SHT30;64644;48.914;2.254;2023-04-25T06:25:45;11.83;69.65
75961;SHT30;64644;48.914;2.254;2023-04-25T06:28:11;11.92;69.53
75961;SHT30;64644;48.914;2.254;2023-04-25T06:30:36;11.97;69.43
75961;SHT30;64644;48.914;2.254;2023-04-25T06:33:01;11.99;69.28
75961;SHT30;64644;48.914;2.254;2023-04-25T06:35:27;12.02;69.17
75961;SHT30;64644;48.914;2.254;2023-04-25T06:37:52;12.03;69.27
75961;SHT30;64644;48.914;2.254;2023-04-25T06:40:17;12.03;69.08
75961;SHT30;64644;48.914;2.254;2023-04-25T06:42:43;12.04;68.97
75961;SHT30;64644;48.914;2.254;2023-04-25T06:45:09;12.07;69.02
75961;SHT30;64644;48.914;2.254;2023-04-25T06:47:34;12.10;69.02
75961;SHT30;64644;48.914;2.254;2023-04-25T06:49:59;12.13;69.08
75961;SHT30;64644;48.914;2.254;2023-04-25T06:52:25;12.17;68.99
75961;SHT30;64644;48.914;2.254;2023-04-25T06:54:50;12.23;69.05
75961;SHT30;64644;48.914;2.254;2023-04-25T06:57:15;12.23;68.81
75961;SHT30;64644;48.914;2.254;2023-04-25T06:59:41;12.20;68.65
75961;SHT30;64644;48.914;2.254;2023-04-25T07:02:06;12.20;68.83
75961;SHT30;64644;48.914;2.254;2023-04-25T07:04:31;12.24;68.73
75961;SHT30;64644;48.914;2.254;2023-04-25T07:06:57;12.20;68.68
75961;SHT30;64644;48.914;2.254;2023-04-25T07:09:22;12.14;68.65
75961;SHT30;64644;48.914;2.254;2023-04-25T07:11:47;12.16;68.55
75961;SHT30;64644;48.914;2.254;2023-04-25T07:14:13;12.14;68.52
75961;SHT30;64644;48.914;2.254;2023-04-25T07:16:38;12.12;68.71
75961;SHT30;64644;48.914;2.254;2023-04-25T07:19:03;12.07;68.67
75961;SHT30;64644;48.914;2.254;2023-04-25T07:21:29;12.10;68.56
75961;SHT30;64644;48.914;2.254;2023-04-25T07:23:56;12.10;68.73
75961;SHT30;64644;48.914;2.254;2023-04-25T07:26:21;12.06;68.93
75961;SHT30;64644;48.914;2.254;2023-04-25T07:28:47;12.03;68.83
75961;SHT30;64644;48.914;2.254;2023-04-25T07:31:15;12.02;68.19
75961;SHT30;64644;48.914;2.254;2023-04-25T07:33:43;12.02;67.94
75961;SHT30;64644;48.914;2.254;2023-04-25T07:36:08;11.97;67.92
75961;SHT30;64644;48.914;2.254;2023-04-25T07:38:33;11.99;67.91
75961;SHT30;64644;48.914;2.254;2023-04-25T07:40:59;12.02;67.98
75961;SHT30;64644;48.914;2.254;2023-04-25T07:43:24;12.06;67.98
75961;SHT30;64644;48.914;2.254;2023-04-25T07:45:50;12.10;67.35
75961;SHT30;64644;48.914;2.254;2023-04-25T07:48:18;12.14;67.21
75961;SHT30;64644;48.914;2.254;2023-04-25T07:50:46;12.16;66.93
75961;SHT30;64644;48.914;2.254;2023-04-25T07:53:11;12.27;66.88
75961;SHT30;64644;48.914;2.254;2023-04-25T07:55:36;12.38;67.12
75961;SHT30;64644;48.914;2.254;2023-04-25T07:58:08;12.45;66.52
75961;SHT30;64644;48.914;2.254;2023-04-25T08:00:34;12.45;66.33
75961;SHT30;64644;48.914;2.254;2023-04-25T08:02:59;12.48;66.36
75961;SHT30;64644;48.914;2.254;2023-04-25T08:05:24;12.49;66.27
75961;SHT30;64644;48.914;2.254;2023-04-25T08:07:50;12.48;66.23
75961;SHT30;64644;48.914;2.254;2023-04-25T08:10:15;12.51;66.31
75961;SHT30;64644;48.914;2.254;2023-04-25T08:12:41;12.54;66.15
75961;SHT30;64644;48.914;2.254;2023-04-25T08:15:07;12.54;66.20
75961;SHT30;64644;48.914;2.254;2023-04-25T08:17:32;12.54;66.20
75961;SHT30;64644;48.914;2.254;2023-04-25T08:19:57;12.55;66.20
75961;SHT30;64644;48.914;2.254;2023-04-25T08:22:23;12.55;66.22
75961;SHT30;64644;48.914;2.254;2023-04-25T08:24:48;12.51;66.10
75961;SHT30;64644;48.914;2.254;2023-04-25T08:27:14;12.48;66.25
75961;SHT30;64644;48.914;2.254;2023-04-25T08:29:39;12.47;66.19
75961;SHT30;64644;48.914;2.254;2023-04-25T08:32:04;12.49;66.02
75961;SHT30;64644;48.914;2.254;2023-04-25T08:34:30;12.47;66.24
75961;SHT30;64644;48.914;2.254;2023-04-25T08:36:55;12.44;66.04
75961;SHT30;64644;48.914;2.254;2023-04-25T08:39:20;12.44;65.79
75961;SHT30;64644;48.914;2.254;2023-04-25T08:41:46;12.37;65.66
75961;SHT30;64644;48.914;2.254;2023-04-25T08:44:13;12.40;66.00
75961;SHT30;64644;48.914;2.254;2023-04-25T08:46:39;12.38;65.90
75961;SHT30;64644;48.914;2.254;2023-04-25T08:49:07;12.47;65.69
75961;SHT30;64644;48.914;2.254;2023-04-25T08:51:36;12.55;65.67
75961;SHT30;64644;48.914;2.254;2023-04-25T08:54:11;12.57;65.74
75961;SHT30;64644;48.914;2.254;2023-04-25T08:56:44;12.59;65.33
75961;SHT30;64644;48.914;2.254;2023-04-25T08:59:11;12.59;65.19
75961;SHT30;64644;48.914;2.254;2023-04-25T09:01:37;12.64;65.07
75961;SHT30;64644;48.914;2.254;2023-04-25T09:04:02;12.65;65.07
75961;SHT30;64644;48.914;2.254;2023-04-25T09:06:32;12.74;65.09
75961;SHT30;64644;48.914;2.254;2023-04-25T09:09:05;12.81;64.79
75961;SHT30;64644;48.914;2.254;2023-04-25T09:11:32;12.89;64.46
75961;SHT30;64644;48.914;2.254;2023-04-25T09:17:00;13.19;63.80
75961;SHT30;64644;48.914;2.254;2023-04-25T09:19:34;13.21;63.68
75961;SHT30;64644;48.914;2.254;2023-04-25T09:22:02;13.20;63.49
75961;SHT30;64644;48.914;2.254;2023-04-25T09:24:38;13.20;63.21
75961;SHT30;64644;48.914;2.254;2023-04-25T09:27:09;13.20;63.01
75961;SHT30;64644;48.914;2.254;2023-04-25T09:29:36;13.21;63.59
75961;SHT30;64644;48.914;2.254;2023-04-25T09:32:19;13.20;63.28
75961;SHT30;64644;48.914;2.254;2023-04-25T09:34:47;13.21;63.22
75961;SHT30;64644;48.914;2.254;2023-04-25T09:37:18;13.24;63.52
75961;SHT30;64644;48.914;2.254;2023-04-25T09:39:45;13.23;62.83
75961;SHT30;64644;48.914;2.254;2023-04-25T09:42:12;13.27;62.68
75961;SHT30;64644;48.914;2.254;2023-04-25T09:44:44;13.26;62.97
75961;SHT30;64644;48.914;2.254;2023-04-25T09:47:14;13.30;62.99
75961;SHT30;64644;48.914;2.254;2023-04-25T09:49:42;13.40;62.84
75961;SHT30;64644;48.914;2.254;2023-04-25T09:52:08;13.54;62.42
75961;SHT30;64644;48.914;2.254;2023-04-25T09:54:34;13.65;62.57
75961;SHT30;64644;48.914;2.254;2023-04-25T09:57:25;13.73;61.66
75961;SHT30;64644;48.914;2.254;2023-04-25T09:59:54;13.82;61.67
75961;SHT30;64644;48.914;2.254;2023-04-25T10:02:25;13.83;61.60
75961;SHT30;64644;48.914;2.254;2023-04-25T10:04:53;13.85;61.72
75961;SHT30;64644;48.914;2.254;2023-04-25T10:07:22;13.79;61.65
75961;SHT30;64644;48.914;2.254;2023-04-25T10:10:00;13.79;62.01
75961;SHT30;64644;48.914;2.254;2023-04-25T10:12:28;13.73;62.02
75961;SHT30;64644;48.914;2.254;2023-04-25T10:14:54;13.72;61.81
75961;SHT30;64644;48.914;2.254;2023-04-25T10:17:20;13.72;61.78
75961;SHT30;64644;48.914;2.254;2023-04-25T10:19:47;13.71;61.59
75961;SHT30;64644;48.914;2.254;2023-04-25T10:22:29;13.68;61.44
75961;SHT30;64644;48.914;2.254;2023-04-25T10:24:56;13.65;61.45
75961;SHT30;64644;48.914;2.254;2023-04-25T10:27:22;13.61;61.85
75961;SHT30;64644;48.914;2.254;2023-04-25T10:30:03;13.62;61.25
75961;SHT30;64644;48.914;2.254;2023-04-25T10:32:30;13.65;61.52
75961;SHT30;64644;48.914;2.254;2023-04-25T10:34:56;13.71;61.63
75961;SHT30;64644;48.914;2.254;2023-04-25T10:37:22;13.78;61.46
75961;SHT30;64644;48.914;2.254;2023-04-25T10:39:49;13.87;61.40
75961;SHT30;64644;48.914;2.254;2023-04-25T10:42:14;13.93;61.30
75961;SHT30;64644;48.914;2.254;2023-04-25T10:44:39;14.05;60.78
75961;SHT30;64644;48.914;2.254;2023-04-25T10:47:06;14.13;60.27
75961;SHT30;64644;48.914;2.254;2023-04-25T10:49:42;14.14;60.24
75961;SHT30;64644;48.914;2.254;2023-04-25T10:52:12;14.17;60.60
75961;SHT30;64644;48.914;2.254;2023-04-25T10:54:54;14.10;59.89
75961;SHT30;64644;48.914;2.254;2023-04-25T11:02:30;14.12;59.84
75961;SHT30;64644;48.914;2.254;2023-04-25T11:04:56;14.14;59.60
75961;SHT30;64644;48.914;2.254;2023-04-25T11:07:38;14.10;60.02
75961;SHT30;64644;48.914;2.254;2023-04-25T11:10:08;14.07;59.95
75961;SHT30;64644;48.914;2.254;2023-04-25T11:12:34;14.03;59.57
75961;SHT30;64644;48.914;2.254;2023-04-25T11:15:02;14.03;59.93
75961;SHT30;64644;48.914;2.254;2023-04-25T11:17:28;14.02;59.80
75961;SHT30;64644;48.914;2.254;2023-04-25T11:19:54;14.05;60.26
75961;SHT30;64644;48.914;2.254;2023-04-25T11:22:21;14.06;59.80
75961;SHT30;64644;48.914;2.254;2023-04-25T11:24:47;14.06;59.53
75961;SHT30;64644;48.914;2.254;2023-04-25T11:27:13;14.06;59.89
75961;SHT30;64644;48.914;2.254;2023-04-25T11:29:38;14.05;59.91
75961;SHT30;64644;48.914;2.254;2023-04-25T11:32:04;14.07;59.41
75961;SHT30;64644;48.914;2.254;2023-04-25T11:34:30;14.06;58.92
75961;SHT30;64644;48.914;2.254;2023-04-25T11:36:57;14.13;59.28
75961;SHT30;64644;48.914;2.254;2023-04-25T11:39:24;14.14;59.12
75961;SHT30;64644;48.914;2.254;2023-04-25T11:41:50;14.18;58.90
75961;SHT30;64644;48.914;2.254;2023-04-25T11:44:16;14.18;59.70
75961;SHT30;64644;48.914;2.254;2023-04-25T11:46:43;14.18;58.99
75961;SHT30;64644;48.914;2.254;2023-04-25T11:49:08;14.20;59.18
75961;SHT30;64644;48.914;2.254;2023-04-25T11:51:40;14.31;58.86
75961;SHT30;64644;48.914;2.254;2023-04-25T11:54:06;14.40;59.34
75961;SHT30;64644;48.914;2.254;2023-04-25T11:56:32;14.46;59.17
75961;SHT30;64644;48.914;2.254;2023-04-25T11:58:59;14.52;58.55
75961;SHT30;64644;48.914;2.254;2023-04-25T12:01:30;14.67;58.56
75961;SHT30;64644;48.914;2.254;2023-04-25T12:03:56;14.71;58.35
75961;SHT30;64644;48.914;2.254;2023-04-25T12:06:26;14.76;57.84
75961;SHT30;64644;48.914;2.254;2023-04-25T12:09:07;14.79;58.26
75961;SHT30;64644;48.914;2.254;2023-04-25T12:11:40;14.86;58.13
75961;SHT30;64644;48.914;2.254;2023-04-25T12:14:06;14.93;58.11
75961;SHT30;64644;48.914;2.254;2023-04-25T12:16:44;14.95;58.12
75961;SHT30;64644;48.914;2.254;2023-04-25T12:19:09;15.04;58.14
75961;SHT30;64644;48.914;2.254;2023-04-25T12:21:38;15.10;57.34
75961;SHT30;64644;48.914;2.254;2023-04-25T12:24:23;15.16;57.23
75961;SHT30;64644;48.914;2.254;2023-04-25T12:27:04;15.20;56.96
75961;SHT30;64644;48.914;2.254;2023-04-25T12:29:33;15.28;56.90
75961;SHT30;64644;48.914;2.254;2023-04-25T12:31:59;15.37;56.88
75961;SHT30;64644;48.914;2.254;2023-04-25T12:34:27;15.44;57.11
75961;SHT30;64644;48.914;2.254;2023-04-25T12:36:53;15.42;56.40
75961;SHT30;64644;48.914;2.254;2023-04-25T12:39:21;15.44;56.28
75961;SHT30;64644;48.914;2.254;2023-04-25T12:41:50;15.41;56.60
75961;SHT30;64644;48.914;2.254;2023-04-25T12:44:18;15.34;56.04
75961;SHT30;64644;48.914;2.254;2023-04-25T12:46:44;15.28;55.95
75961;SHT30;64644;48.914;2.254;2023-04-25T12:49:10;15.26;56.10
75961;SHT30;64644;48.914;2.254;2023-04-25T12:51:36;15.19;56.42
75961;SHT30;64644;48.914;2.254;2023-04-25T12:54:02;15.13;56.29
75961;SHT30;64644;48.914;2.254;2023-04-25T12:56:30;15.10;56.10
75961;SHT30;64644;48.914;2.254;2023-04-25T12:58:56;15.03;56.72
75961;SHT30;64644;48.914;2.254;2023-04-25T13:01:22;14.99;56.31
75961;SHT30;64644;48.914;2.254;2023-04-25T13:03:47;14.97;56.96
75961;SHT30;64644;48.914;2.254;2023-04-25T13:06:17;14.97;56.84
75961;SHT30;64644;48.914;2.254;2023-04-25T13:08:42;14.96;56.48
75961;SHT30;64644;48.914;2.254;2023-04-25T13:11:08;14.95;56.89
75961;SHT30;64644;48.914;2.254;2023-04-25T13:13:34;14.96;56.89
75961;SHT30;64644;48.914;2.254;2023-04-25T13:16:01;14.97;56.84
75961;SHT30;64644;48.914;2.254;2023-04-25T13:18:27;15.04;56.29
75961;SHT30;64644;48.914;2.254;2023-04-25T13:20:53;15.07;56.36
75961;SHT30;64644;48.914;2.254;2023-04-25T13:23:19;15.13;55.63
75961;SHT30;64644;48.914;2.254;2023-04-25T13:25:45;15.17;55.50
75961;SHT30;64644;48.914;2.254;2023-04-25T13:28:10;15.21;54.74
75961;SHT30;64644;48.914;2.254;2023-04-25T13:30:36;15.24;55.00
75961;SHT30;64644;48.914;2.254;2023-04-25T13:33:02;15.31;55.15
75961;SHT30;64644;48.914;2.254;2023-04-25T13:35:29;15.34;54.89
75961;SHT30;64644;48.914;2.254;2023-04-25T13:37:55;15.30;55.83
75961;SHT30;64644;48.914;2.254;2023-04-25T13:40:21;15.28;55.70
75961;SHT30;64644;48.914;2.254;2023-04-25T13:42:46;15.21;55.18
75961;SHT30;64644;48.914;2.254;2023-04-25T13:45:12;15.14;55.39
75961;SHT30;64644;48.914;2.254;2023-04-25T13:47:37;15.10;55.02
75961;SHT30;64644;48.914;2.254;2023-04-25T13:50:04;15.06;54.89
75961;SHT30;64644;48.914;2.254;2023-04-25T13:52:30;15.02;55.11
75961;SHT30;64644;48.914;2.254;2023-04-25T13:54:57;14.99;55.35
75961;SHT30;64644;48.914;2.254;2023-04-25T13:57:22;14.97;55.90
75961;SHT30;64644;48.914;2.254;2023-04-25T13:59:47;14.96;54.93
75961;SHT30;64644;48.914;2.254;2023-04-25T14:02:13;14.95;54.99
75961;SHT30;64644;48.914;2.254;2023-04-25T14:04:38;14.95;55.10
75961;SHT30;64644;48.914;2.254;2023-04-25T14:07:04;14.95;54.89
75961;SHT30;64644;48.914;2.254;2023-04-25T14:09:30;14.89;55.04
75961;SHT30;64644;48.914;2.254;2023-04-25T14:11:55;14.89;55.13
75961;SHT30;64644;48.914;2.254;2023-04-25T14:14:21;14.87;55.44
75961;SHT30;64644;48.914;2.254;2023-04-25T14:16:48;14.83;55.02
75961;SHT30;64644;48.914;2.254;2023-04-25T14:19:14;14.80;55.64
75961;SHT30;64644;48.914;2.254;2023-04-25T14:21:39;14.82;55.20
75961;SHT30;64644;48.914;2.254;2023-04-25T14:24:05;14.80;54.40
75961;SHT30;64644;48.914;2.254;2023-04-25T14:26:33;14.76;55.13
75961;SHT30;64644;48.914;2.254;2023-04-25T14:28:58;14.80;55.01
75961;SHT30;64644;48.914;2.254;2023-04-25T14:31:24;14.83;54.83
75961;SHT30;64644;48.914;2.254;2023-04-25T14:33:49;14.90;54.43
75961;SHT30;64644;48.914;2.254;2023-04-25T14:36:15;14.96;53.95
75961;SHT30;64644;48.914;2.254;2023-04-25T14:38:40;15.02;54.17
75961;SHT30;64644;48.914;2.254;2023-04-25T14:41:06;15.16;54.23
75961;SHT30;64644;48.914;2.254;2023-04-25T14:43:31;15.24;53.50
75961;SHT30;64644;48.914;2.254;2023-04-25T14:45:56;15.34;53.45
75961;SHT30;64644;48.914;2.254;2023-04-25T14:48:22;15.42;53.32
75961;SHT30;64644;48.914;2.254;2023-04-25T14:50:48;15.42;52.84
75961;SHT30;64644;48.914;2.254;2023-04-25T14:53:14;15.47;53.25
75961;SHT30;64644;48.914;2.254;2023-04-25T14:55:40;15.47;53.35
75961;SHT30;64644;48.914;2.254;2023-04-25T14:58:05;15.48;53.66
75961;SHT30;64644;48.914;2.254;2023-04-25T15:00:31;15.54;53.79
75961;SHT30;64644;48.914;2.254;2023-04-25T15:02:57;15.54;52.46
75961;SHT30;64644;48.914;2.254;2023-04-25T15:05:22;15.47;52.10
75961;SHT30;64644;48.914;2.254;2023-04-25T15:07:48;15.41;53.11
75961;SHT30;64644;48.914;2.254;2023-04-25T15:10:13;15.35;53.00
75961;SHT30;64644;48.914;2.254;2023-04-25T15:12:43;15.27;52.99
75961;SHT30;64644;48.914;2.254;2023-04-25T15:15:10;15.21;53.03
75961;SHT30;64644;48.914;2.254;2023-04-25T15:17:40;15.23;52.77
75961;SHT30;64644;48.914;2.254;2023-04-25T15:20:07;15.24;52.67
75961;SHT30;64644;48.914;2.254;2023-04-25T15:22:33;15.28;53.36
75961;SHT30;64644;48.914;2.254;2023-04-25T15:24:58;15.32;52.80
75961;SHT30;64644;48.914;2.254;2023-04-25T15:27:24;15.42;53.09
75961;SHT30;64644;48.914;2.254;2023-04-25T15:29:49;15.44;53.25
75961;SHT30;64644;48.914;2.254;2023-04-25T15:32:15;15.51;53.21
75961;SHT30;64644;48.914;2.254;2023-04-25T15:34:40;15.51;53.45